createdAt,value
2018-06-30T00:01:41.266Z,17.20
2018-06-30T00:04:10.006Z,17.20
2018-06-30T00:06:38.876Z,17.10
2018-06-30T00:09:09.047Z,17.10
2018-06-30T00:11:38.252Z,17.20
2018-06-30T00:14:07.058Z,17.10
2018-06-30T00:16:35.604Z,17.00
2018-06-30T00:19:04.391Z,16.90
2018-06-30T00:21:32.856Z,16.90
2018-06-30T00:24:01.301Z,16.90
2018-06-30T00:26:29.812Z,16.90
2018-06-30T00:28:58.216Z,16.80
2018-06-30T00:31:26.666Z,16.80
2018-06-30T00:33:55.067Z,16.80
2018-06-30T00:36:23.526Z,16.90
2018-06-30T00:38:51.980Z,16.90
2018-06-30T00:41:20.509Z,16.80
2018-06-30T00:43:49.155Z,16.80
2018-06-30T00:46:17.744Z,16.60
2018-06-30T00:48:46.542Z,16.60
2018-06-30T00:51:15.381Z,16.60
2018-06-30T00:53:44.862Z,16.50
2018-06-30T00:56:13.529Z,16.50
2018-06-30T00:58:41.937Z,16.40
2018-06-30T01:01:10.520Z,16.40
2018-06-30T01:03:39.110Z,16.40
2018-06-30T01:06:07.774Z,16.40
2018-06-30T01:08:36.271Z,16.40
2018-06-30T01:13:33.054Z,16.40
2018-06-30T01:16:01.572Z,16.40
2018-06-30T01:18:30.076Z,16.40
2018-06-30T01:20:58.642Z,16.40
2018-06-30T01:23:27.098Z,16.50
2018-06-30T01:25:55.675Z,16.60
2018-06-30T01:28:24.622Z,16.50
2018-06-30T02:14:35.369Z,16.40
2018-06-30T02:17:04.956Z,16.20
2018-06-30T02:19:33.398Z,16.20
2018-06-30T02:22:01.903Z,16.20
2018-06-30T02:24:30.625Z,16.10
2018-06-30T02:26:59.224Z,16.00
2018-06-30T02:29:27.712Z,16.00
2018-06-30T02:31:56.304Z,16.10
2018-06-30T02:34:24.726Z,16.00
2018-06-30T02:36:53.231Z,16.10
2018-06-30T02:39:21.971Z,16.00
2018-06-30T02:41:50.880Z,16.00
2018-06-30T02:44:19.336Z,15.90
2018-06-30T02:46:47.830Z,15.90
2018-06-30T02:49:16.266Z,16.00
2018-06-30T02:51:44.823Z,16.20
2018-06-30T02:54:13.348Z,16.20
2018-06-30T02:56:42.106Z,16.20
2018-06-30T02:59:10.619Z,16.20
2018-06-30T03:01:40.179Z,16.00
2018-06-30T03:04:09.348Z,16.00
2018-06-30T03:06:38.981Z,16.10
2018-06-30T03:09:10.182Z,16.00
2018-06-30T03:11:39.465Z,16.10
2018-06-30T03:14:08.708Z,16.10
2018-06-30T03:16:37.762Z,16.00
2018-06-30T03:19:06.221Z,16.00
2018-06-30T03:21:34.854Z,16.10
2018-06-30T03:24:03.373Z,16.10
2018-06-30T03:26:31.933Z,16.20
2018-06-30T03:29:00.364Z,16.10
2018-06-30T03:33:57.261Z,16.00
2018-06-30T03:36:25.825Z,15.80
2018-06-30T03:38:54.275Z,15.80
2018-06-30T03:41:22.907Z,16.00
2018-06-30T03:43:51.796Z,16.00
2018-06-30T03:46:20.475Z,16.10
2018-06-30T03:48:49.066Z,16.10
2018-06-30T03:51:18.647Z,16.30
2018-06-30T03:53:47.175Z,16.30
2018-06-30T03:56:15.667Z,16.30
2018-06-30T03:58:44.139Z,16.30
2018-06-30T04:01:12.655Z,16.20
2018-06-30T04:03:41.454Z,16.30
2018-06-30T04:06:09.941Z,16.20
2018-06-30T04:08:39.170Z,16.30
2018-06-30T04:11:07.695Z,16.30
2018-06-30T04:13:36.286Z,16.30
2018-06-30T04:16:04.841Z,16.20
2018-06-30T04:18:33.456Z,16.20
2018-06-30T04:21:01.881Z,16.10
2018-06-30T04:23:30.476Z,16.10
2018-06-30T04:25:58.974Z,16.20
2018-06-30T04:28:27.469Z,16.30
2018-06-30T04:30:55.911Z,16.30
2018-06-30T04:33:24.555Z,16.30
2018-06-30T04:35:53.121Z,16.20
2018-06-30T04:38:21.846Z,16.20
2018-06-30T04:40:50.353Z,16.10
2018-06-30T04:43:18.916Z,16.10
2018-06-30T04:45:47.341Z,16.10
2018-06-30T04:48:16.229Z,15.90
2018-06-30T04:50:44.787Z,15.90
2018-06-30T04:53:13.327Z,15.90
2018-06-30T04:55:41.713Z,15.90
2018-06-30T04:58:10.361Z,15.90
2018-06-30T05:00:39.428Z,15.90
2018-06-30T05:05:36.921Z,15.90
2018-06-30T05:08:05.533Z,16.00
2018-06-30T05:10:34.026Z,16.00
2018-06-30T05:13:02.675Z,16.00
2018-06-30T05:15:31.072Z,16.00
2018-06-30T05:17:59.722Z,16.10
2018-06-30T05:20:28.225Z,16.20
2018-06-30T05:22:56.712Z,16.30
2018-06-30T05:25:25.135Z,16.40
2018-06-30T05:27:53.584Z,16.60
2018-06-30T05:30:22.320Z,16.60
2018-06-30T05:32:50.923Z,16.60
2018-06-30T05:35:19.389Z,16.70
2018-06-30T05:37:48.306Z,16.60
2018-06-30T05:40:16.773Z,16.60
2018-06-30T05:42:45.319Z,16.60
2018-06-30T05:45:13.810Z,16.80
2018-06-30T05:47:42.437Z,16.80
2018-06-30T05:50:11.500Z,16.80
2018-06-30T05:52:40.057Z,16.80
2018-06-30T05:55:09.223Z,16.80
2018-06-30T05:57:37.865Z,17.00
2018-06-30T06:00:06.962Z,16.90
2018-06-30T06:02:35.530Z,17.10
2018-06-30T06:07:32.465Z,17.00
2018-06-30T06:10:01.107Z,17.10
2018-06-30T06:12:29.903Z,17.00
2018-06-30T06:14:58.465Z,17.10
2018-06-30T06:17:27.226Z,17.10
2018-06-30T06:19:56.653Z,17.20
2018-06-30T06:22:25.187Z,17.30
2018-06-30T06:24:53.662Z,17.20
2018-06-30T06:27:22.310Z,17.30
2018-06-30T06:29:50.824Z,17.20
2018-06-30T06:32:19.419Z,17.30
2018-06-30T06:34:47.943Z,17.30
2018-06-30T06:37:16.967Z,17.40
2018-06-30T06:39:45.462Z,17.50
2018-06-30T06:42:14.011Z,17.40
2018-06-30T06:44:42.442Z,17.60
2018-06-30T06:47:11.036Z,17.60
2018-06-30T06:49:40.530Z,17.70
2018-06-30T06:52:09.779Z,17.70
2018-06-30T06:54:38.796Z,17.70
2018-06-30T06:57:08.366Z,17.80
2018-06-30T06:59:37.035Z,17.90
2018-06-30T07:02:05.895Z,18.10
2018-06-30T07:04:34.521Z,18.20
2018-06-30T07:07:03.138Z,18.10
2018-06-30T07:09:31.639Z,18.20
2018-06-30T07:12:00.209Z,18.20
2018-06-30T07:14:28.683Z,18.50
2018-06-30T07:16:57.306Z,18.50
2018-06-30T07:19:25.796Z,18.60
2018-06-30T07:21:54.837Z,18.50
2018-06-30T07:24:23.312Z,18.60
2018-06-30T07:26:52.477Z,18.80
2018-06-30T07:29:21.009Z,18.90
2018-06-30T07:31:49.603Z,18.90
2018-06-30T07:34:18.057Z,19.00
2018-06-30T07:36:47.052Z,19.00
2018-06-30T07:39:15.551Z,19.00
2018-06-30T07:41:44.097Z,19.00
2018-06-30T07:44:12.661Z,19.00
2018-06-30T07:46:41.197Z,19.10
2018-06-30T07:49:10.371Z,19.10
2018-06-30T07:51:39.759Z,19.20
2018-06-30T07:54:09.212Z,19.20
2018-06-30T07:56:38.444Z,19.30
2018-06-30T07:59:07.003Z,19.40
2018-06-30T08:01:35.466Z,19.30
2018-06-30T08:04:04.385Z,19.20
2018-06-30T08:06:32.947Z,19.20
2018-06-30T08:09:01.359Z,19.30
2018-06-30T08:11:30.117Z,19.40
2018-06-30T08:13:58.766Z,19.50
2018-06-30T08:16:27.346Z,19.40
2018-06-30T08:18:55.830Z,19.40
2018-06-30T08:21:24.605Z,19.60
2018-06-30T08:23:53.132Z,19.70
2018-06-30T08:26:21.544Z,19.80
2018-06-30T08:28:50.043Z,19.80
2018-06-30T08:31:20.484Z,20.00
2018-06-30T08:33:49.013Z,20.00
2018-06-30T08:36:17.499Z,20.10
2018-06-30T08:38:46.214Z,20.10
2018-06-30T08:41:14.716Z,20.30
2018-06-30T08:43:43.596Z,20.30
2018-06-30T08:46:12.108Z,20.30
2018-06-30T08:48:41.137Z,20.30
2018-06-30T08:51:09.664Z,20.40
2018-06-30T08:53:38.308Z,20.40
2018-06-30T08:56:07.805Z,20.40
2018-06-30T08:58:36.360Z,20.50
2018-06-30T09:01:05.019Z,20.60
2018-06-30T09:03:33.513Z,20.60
2018-06-30T09:06:02.152Z,20.50
2018-06-30T09:10:58.866Z,20.50
2018-06-30T09:13:27.292Z,20.70
2018-06-30T09:18:24.019Z,20.90
2018-06-30T09:20:52.550Z,20.90
2018-06-30T09:23:20.958Z,21.10
2018-06-30T09:25:49.456Z,21.20
2018-06-30T09:28:18.080Z,21.20
2018-06-30T09:30:46.620Z,21.20
2018-06-30T09:33:15.445Z,21.20
2018-06-30T09:35:44.194Z,21.10
2018-06-30T09:38:12.927Z,21.20
2018-06-30T09:40:41.505Z,21.30
2018-06-30T09:43:10.359Z,21.30
2018-06-30T09:48:08.022Z,21.50
2018-06-30T09:50:37.021Z,21.50
2018-06-30T09:53:05.565Z,21.60
2018-06-30T09:55:33.969Z,21.50
2018-06-30T09:58:02.595Z,21.50
2018-06-30T10:00:36.462Z,21.50
2018-06-30T10:03:05.123Z,21.50
2018-06-30T10:05:33.738Z,21.60
2018-06-30T10:08:02.172Z,21.60
2018-06-30T10:10:30.730Z,21.70
2018-06-30T10:12:59.224Z,21.70
2018-06-30T10:15:27.729Z,21.70
2018-06-30T10:17:56.145Z,21.80
2018-06-30T10:20:24.744Z,21.80
2018-06-30T10:22:53.195Z,21.80
2018-06-30T10:25:22.076Z,21.80
2018-06-30T10:27:50.832Z,21.70
2018-06-30T10:30:19.297Z,22.00
2018-06-30T10:32:47.711Z,22.10
2018-06-30T10:35:16.296Z,22.00
2018-06-30T10:37:44.765Z,22.10
2018-06-30T10:40:13.387Z,22.10
2018-06-30T10:42:41.940Z,22.00
2018-06-30T10:45:10.540Z,22.30
2018-06-30T10:47:39.007Z,22.50
2018-06-30T10:50:08.149Z,22.30
2018-06-30T10:52:36.668Z,22.30
2018-06-30T10:55:05.292Z,22.30
2018-06-30T10:57:33.682Z,22.40
2018-06-30T11:00:02.340Z,22.30
2018-06-30T11:02:30.824Z,22.30
2018-06-30T11:04:59.421Z,22.30
2018-06-30T11:07:28.233Z,22.30
2018-06-30T11:09:56.895Z,22.40
2018-06-30T11:12:25.366Z,22.40
2018-06-30T11:14:53.979Z,22.60
2018-06-30T11:17:22.429Z,22.60
2018-06-30T11:19:51.073Z,22.60
2018-06-30T11:22:19.968Z,22.70
2018-06-30T11:24:48.620Z,22.70
2018-06-30T11:27:17.096Z,22.70
2018-06-30T11:29:45.752Z,22.80
2018-06-30T11:32:14.155Z,22.70
2018-06-30T11:34:42.753Z,22.80
2018-06-30T11:37:11.132Z,22.90
2018-06-30T11:39:40.197Z,22.90
2018-06-30T11:42:09.275Z,23.10
2018-06-30T11:44:38.960Z,23.20
2018-06-30T11:47:08.294Z,23.20
2018-06-30T11:49:38.050Z,23.00
2018-06-30T11:52:06.552Z,23.10
2018-06-30T11:57:03.146Z,23.00
2018-06-30T11:59:31.746Z,23.10
2018-06-30T12:02:00.285Z,23.10
2018-06-30T12:04:29.024Z,23.10
2018-06-30T12:06:57.450Z,23.10
2018-06-30T12:09:27.004Z,23.30
2018-06-30T12:11:55.880Z,23.30
2018-06-30T12:14:24.445Z,23.30
2018-06-30T12:16:52.911Z,23.40
2018-06-30T12:19:21.560Z,23.30
2018-06-30T12:21:51.710Z,23.20
2018-06-30T12:24:20.333Z,23.30
2018-06-30T12:26:48.856Z,23.30
2018-06-30T12:29:18.741Z,23.30
2018-06-30T12:31:50.386Z,23.40
2018-06-30T12:34:19.143Z,23.50
2018-06-30T12:36:47.698Z,23.50
2018-06-30T12:39:16.237Z,23.50
2018-06-30T12:41:48.842Z,23.40
2018-06-30T12:44:17.934Z,23.50
2018-06-30T12:46:46.481Z,23.60
2018-06-30T12:49:19.191Z,23.70
2018-06-30T12:51:47.888Z,23.60
2018-06-30T12:54:16.278Z,23.60
2018-06-30T12:56:46.160Z,23.60
2018-06-30T12:59:17.069Z,24.50
2018-06-30T13:01:45.678Z,23.60
2018-06-30T13:04:14.538Z,23.80
2018-06-30T13:06:43.038Z,23.80
2018-06-30T13:09:13.043Z,23.80
2018-06-30T13:11:42.091Z,24.00
2018-06-30T13:14:10.913Z,24.20
2018-06-30T13:16:40.387Z,24.10
2018-06-30T13:19:10.082Z,24.10
2018-06-30T13:21:39.277Z,24.10
2018-06-30T13:24:08.296Z,24.30
2018-06-30T13:26:36.687Z,24.20
2018-06-30T13:29:05.537Z,24.30
2018-06-30T13:31:34.471Z,24.30
2018-06-30T13:34:03.322Z,24.40
2018-06-30T13:36:31.854Z,24.20
2018-06-30T13:39:00.353Z,24.30
2018-06-30T13:41:28.872Z,24.30
2018-06-30T13:43:57.423Z,24.30
2018-06-30T13:46:25.886Z,24.30
2018-06-30T13:48:54.523Z,24.40
2018-06-30T13:51:23.028Z,24.40
2018-06-30T13:53:51.524Z,24.40
2018-06-30T13:56:20.025Z,24.60
2018-06-30T13:58:48.724Z,24.60
2018-06-30T14:01:17.194Z,24.70
2018-06-30T14:03:45.689Z,24.80
2018-06-30T14:06:14.100Z,24.90
2018-06-30T14:08:42.601Z,25.00
2018-06-30T14:11:11.107Z,25.00
2018-06-30T14:13:40.378Z,25.00
2018-06-30T14:16:09.629Z,24.90
2018-06-30T14:18:38.238Z,24.90
2018-06-30T14:21:07.243Z,25.00
2018-06-30T14:23:36.281Z,24.90
2018-06-30T14:26:04.984Z,24.90
2018-06-30T14:28:33.703Z,24.80
2018-06-30T14:31:02.629Z,24.90
2018-06-30T14:33:31.219Z,24.90
2018-06-30T14:36:00.017Z,24.90
2018-06-30T14:38:28.553Z,24.90
2018-06-30T14:40:57.024Z,25.00
2018-06-30T14:43:25.529Z,25.00
2018-06-30T14:45:54.035Z,25.00
2018-06-30T14:48:22.544Z,25.20
2018-06-30T14:50:51.046Z,25.10
2018-06-30T14:53:19.557Z,25.10
2018-06-30T14:55:48.036Z,25.20
2018-06-30T14:58:16.632Z,25.20
2018-06-30T15:00:45.478Z,25.10
2018-06-30T15:03:14.012Z,25.20
2018-06-30T15:05:42.932Z,25.30
2018-06-30T15:08:11.756Z,25.20
2018-06-30T15:10:40.590Z,25.10
2018-06-30T15:13:09.767Z,25.20
2018-06-30T15:15:39.036Z,25.30
2018-06-30T15:18:08.324Z,25.20
2018-06-30T15:20:37.216Z,25.30
2018-06-30T15:23:05.714Z,25.30
2018-06-30T15:28:03.185Z,25.30
2018-06-30T15:30:31.722Z,25.30
2018-06-30T15:33:00.517Z,25.40
2018-06-30T15:35:28.974Z,25.40
2018-06-30T15:37:57.846Z,25.30
2018-06-30T15:40:26.216Z,25.20
2018-06-30T15:42:54.872Z,25.20
2018-06-30T15:47:51.706Z,25.00
2018-06-30T15:50:20.157Z,24.90
2018-06-30T15:52:49.138Z,24.80
2018-06-30T15:55:17.590Z,24.70
2018-06-30T15:57:46.276Z,24.60
2018-06-30T16:00:14.759Z,24.40
2018-06-30T16:02:43.643Z,24.40
2018-06-30T16:05:12.120Z,24.30
2018-06-30T16:07:40.772Z,24.20
2018-06-30T16:10:09.254Z,24.10
2018-06-30T16:12:38.108Z,24.00
2018-06-30T16:15:06.571Z,23.90
2018-06-30T16:17:35.599Z,23.90
2018-06-30T16:20:04.269Z,23.80
2018-06-30T16:22:32.827Z,23.80
2018-06-30T16:25:01.241Z,23.80
2018-06-30T16:27:30.180Z,23.80
2018-06-30T16:29:58.564Z,23.70
2018-06-30T16:32:27.156Z,23.70
2018-06-30T16:34:55.625Z,23.50
2018-06-30T16:37:24.165Z,23.40
2018-06-30T16:39:52.643Z,23.30
2018-06-30T16:42:21.190Z,23.30
2018-06-30T16:44:49.693Z,23.30
2018-06-30T16:47:18.352Z,23.20
2018-06-30T16:49:47.162Z,23.10
2018-06-30T16:52:15.739Z,23.20
2018-06-30T16:54:44.221Z,23.10
2018-06-30T16:57:12.872Z,23.10
2018-06-30T16:59:41.434Z,23.00
2018-06-30T17:02:09.981Z,23.00
2018-06-30T17:04:39.125Z,22.90
2018-06-30T17:07:08.293Z,22.90
2018-06-30T17:09:36.775Z,22.90
2018-06-30T17:12:05.350Z,22.80
2018-06-30T17:14:33.739Z,22.80
2018-06-30T17:19:32.959Z,22.70
2018-06-30T17:22:01.411Z,22.60
2018-06-30T17:24:30.029Z,22.60
2018-06-30T17:26:58.546Z,22.60
2018-06-30T17:29:27.032Z,22.60
2018-06-30T17:31:55.948Z,22.60
2018-06-30T17:34:24.366Z,22.50
2018-06-30T17:36:52.850Z,22.40
2018-06-30T17:39:21.254Z,22.40
2018-06-30T17:41:49.878Z,22.40
2018-06-30T17:44:18.310Z,22.30
2018-06-30T17:46:47.336Z,22.20
2018-06-30T17:49:15.752Z,22.20
2018-06-30T17:51:44.334Z,22.20
2018-06-30T17:54:12.918Z,22.10
2018-06-30T17:56:41.517Z,22.10
2018-06-30T17:59:10.029Z,22.00
2018-06-30T18:01:39.391Z,21.90
2018-06-30T18:04:08.803Z,21.90
2018-06-30T18:06:37.436Z,21.80
2018-06-30T18:09:09.311Z,21.80
2018-06-30T18:11:38.888Z,21.70
2018-06-30T18:14:08.634Z,21.80
2018-06-30T18:16:37.537Z,21.60
2018-06-30T18:19:06.190Z,21.60
2018-06-30T18:21:34.752Z,21.60
2018-06-30T18:24:03.194Z,21.50
2018-06-30T18:26:31.911Z,21.40
2018-06-30T18:29:00.793Z,21.50
2018-06-30T18:31:29.373Z,21.40
2018-06-30T18:33:57.906Z,21.40
2018-06-30T18:36:26.608Z,21.30
2018-06-30T18:38:55.114Z,21.30
2018-06-30T18:41:23.729Z,21.30
2018-06-30T18:43:52.248Z,21.30
2018-06-30T18:46:20.979Z,21.20
2018-06-30T18:48:49.492Z,21.10
2018-06-30T18:51:18.013Z,21.00
2018-06-30T18:53:46.588Z,21.00
2018-06-30T18:56:15.275Z,21.00
2018-06-30T18:58:44.052Z,21.00
2018-06-30T19:01:12.695Z,20.90
2018-06-30T19:03:41.197Z,20.80
2018-06-30T19:06:11.039Z,20.80
2018-06-30T19:08:40.143Z,20.70
2018-06-30T19:11:09.241Z,20.60
2018-06-30T19:13:38.457Z,20.70
2018-06-30T19:16:07.020Z,20.60
2018-06-30T19:18:35.504Z,20.60
2018-06-30T19:21:04.543Z,20.70
2018-06-30T19:23:32.992Z,20.70
2018-06-30T19:26:01.495Z,20.60
2018-06-30T19:28:29.976Z,20.50
2018-06-30T19:30:58.449Z,20.50
2018-06-30T19:35:55.158Z,20.40
2018-06-30T19:38:23.957Z,20.30
2018-06-30T19:40:52.577Z,20.40
2018-06-30T19:43:21.042Z,20.40
2018-06-30T19:45:49.579Z,20.40
2018-06-30T19:48:18.025Z,20.20
2018-06-30T19:50:46.581Z,20.30
2018-06-30T19:53:15.127Z,20.30
2018-06-30T19:55:43.705Z,20.20
2018-06-30T19:58:12.621Z,20.20
2018-06-30T20:00:41.220Z,20.00
2018-06-30T20:03:10.357Z,19.90
2018-06-30T20:05:39.745Z,20.10
2018-06-30T20:08:09.265Z,19.80
2018-06-30T20:10:38.406Z,19.80
2018-06-30T20:13:06.868Z,19.80
2018-06-30T20:15:35.416Z,19.80
2018-06-30T20:18:04.194Z,19.70
2018-06-30T20:20:32.691Z,19.80
2018-06-30T20:23:01.126Z,19.80
2018-06-30T20:25:29.611Z,19.70
2018-06-30T20:27:58.050Z,19.50
2018-06-30T20:30:26.583Z,19.60
2018-06-30T20:32:54.959Z,19.40
2018-06-30T20:35:23.473Z,19.40
2018-06-30T20:37:51.992Z,19.40
2018-06-30T20:40:20.569Z,19.30
2018-06-30T20:42:49.059Z,19.30
2018-06-30T20:45:17.586Z,19.20
2018-06-30T20:47:46.287Z,19.10
2018-06-30T20:50:15.219Z,19.10
2018-06-30T20:52:43.975Z,19.10
2018-06-30T20:55:12.623Z,19.10
2018-06-30T20:57:41.154Z,19.10
2018-06-30T21:00:10.680Z,19.10
2018-06-30T21:02:39.565Z,19.00
2018-06-30T21:05:08.947Z,19.10
2018-06-30T21:07:37.638Z,19.00
2018-06-30T21:10:06.264Z,19.00
2018-06-30T21:12:34.765Z,18.90
2018-06-30T21:15:03.383Z,18.90
2018-06-30T21:17:32.091Z,18.80
2018-06-30T21:20:00.768Z,18.80
2018-06-30T21:22:29.639Z,18.80
2018-06-30T21:24:58.289Z,18.70
2018-06-30T21:27:26.839Z,18.70
2018-06-30T21:29:55.785Z,18.60
2018-06-30T21:32:24.248Z,18.50
2018-06-30T21:37:21.116Z,18.50
2018-06-30T21:39:49.792Z,18.40
2018-06-30T21:42:18.298Z,18.30
2018-06-30T21:44:47.040Z,18.30
2018-06-30T21:47:15.965Z,18.30
2018-06-30T21:49:44.572Z,18.20
2018-06-30T21:52:13.004Z,18.10
2018-06-30T21:54:41.547Z,18.10
2018-06-30T21:57:10.529Z,18.10
2018-06-30T21:59:39.949Z,18.00
2018-06-30T22:02:09.399Z,18.00
2018-06-30T22:04:39.525Z,17.90
2018-06-30T22:07:08.485Z,17.80
2018-06-30T22:09:37.102Z,17.70
2018-06-30T22:12:05.558Z,17.70
2018-06-30T22:14:34.393Z,17.60
2018-06-30T22:17:02.877Z,17.60
2018-06-30T22:19:31.479Z,17.50
2018-06-30T22:21:59.978Z,17.50
2018-06-30T22:24:28.662Z,17.40
2018-06-30T22:26:57.115Z,17.40
2018-06-30T22:29:25.696Z,17.30
2018-06-30T22:31:54.208Z,17.30
2018-06-30T22:34:22.853Z,17.30
2018-06-30T22:36:51.295Z,17.30
2018-06-30T22:39:31.131Z,17.20
2018-06-30T22:41:59.627Z,17.20
2018-06-30T22:44:28.484Z,17.20
2018-06-30T22:46:56.938Z,17.10
2018-06-30T22:49:25.396Z,17.20
2018-06-30T22:51:53.888Z,17.20
2018-06-30T22:54:22.470Z,17.10
2018-06-30T22:56:51.414Z,17.20
2018-06-30T22:59:19.959Z,17.10
2018-06-30T23:01:48.611Z,17.10
2018-06-30T23:04:17.550Z,17.00
2018-06-30T23:06:46.187Z,17.00
2018-06-30T23:09:14.679Z,16.90
2018-06-30T23:11:43.221Z,16.80
2018-06-30T23:14:11.660Z,16.70
2018-06-30T23:16:41.269Z,16.70
2018-06-30T23:19:10.685Z,16.60
2018-06-30T23:21:39.571Z,16.60
2018-06-30T23:24:08.601Z,16.50
2018-06-30T23:26:37.039Z,16.50
2018-06-30T23:29:05.511Z,16.40
2018-06-30T23:31:34.133Z,16.40
2018-06-30T23:34:02.679Z,16.30
2018-06-30T23:36:31.332Z,16.30
2018-06-30T23:38:59.860Z,16.30
2018-06-30T23:41:28.420Z,16.30
2018-06-30T23:46:25.026Z,16.20
2018-06-30T23:48:53.468Z,16.10
2018-06-30T23:51:21.952Z,16.10
2018-06-30T23:53:50.387Z,16.10
2018-06-30T23:56:18.880Z,16.10
2018-06-30T23:58:47.343Z,16.00
